EDT,Max TemperatureF,Mean TemperatureF,Min TemperatureF,Max Dew PointF,MeanDew PointF,Min DewpointF,Max Humidity, Mean Humidity, Min Humidity, Max Sea Level PressureIn, Mean Sea Level PressureIn, Min Sea Level PressureIn, Max VisibilityMiles, Mean VisibilityMiles, Min VisibilityMiles, Max Wind SpeedMPH, Mean Wind SpeedMPH, Max Gust SpeedMPH,PrecipitationIn, CloudCover, Events, WindDirDegrees
2013-3-1,46,35,24,30,27,23,100,68,46,29.92,29.89,29.86,10,10,10,10,2,,0.00,6,,293
2013-3-2,42,36,30,34,30,21,93,80,49,29.93,29.88,29.82,10,10,2,13,1,,0.02,6,Rain-Snow,296
2013-3-3,44,32,21,21,16,12,93,53,29,30.00,29.94,29.88,10,10,10,10,3,,0.00,0,,303
2013-3-4,53,35,17,27,16,9,100,50,16,30.13,30.06,29.99,10,10,10,9,2,17,0.00,0,,257
2013-3-5,48,40,33,43,36,23,100,82,49,30.06,29.87,29.61,10,8,2,9,2,,0.45,6,Rain,297
2013-3-6,44,37,30,41,23,19,100,56,37,30.11,29.86,29.61,10,10,10,15,8,29,0.00,2,Rain,295
2013-3-7,53,38,23,28,24,21,100,63,28,30.27,30.18,30.11,10,10,10,9,2,,0.00,0,,318
2013-3-8,55,39,23,27,22,19,100,58,25,30.32,30.26,30.20,10,10,7,10,2,18,0.00,0,,314
2013-3-9,62,44,26,34,27,23,93,58,25,30.35,30.29,30.23,10,10,10,6,1,,0.00,0,,60
2013-3-10,68,50,33,36,33,28,93,58,23,30.30,30.23,30.16,10,10,10,9,1,,0.00,0,,186
2013-3-11,68,52,37,54,40,30,94,67,40,30.19,30.03,29.86,10,10,10,14,2,24,0.04,5,Rain,172
2013-3-12,68,56,44,57,44,27,100,67,26,29.99,29.85,29.75,10,9,2,10,6,20,0.28,4,Rain,275
2013-3-13,53,42,30,32,22,14,100,51,21,30.16,30.05,29.99,10,10,10,21,5,32,0.00,1,,289
2013-3-14,51,38,26,18,13,7,69,38,17,30.28,30.20,30.14,10,10,10,12,4,17,0.00,0,,293
2013-3-15,66,46,26,36,27,18,86,54,28,30.19,30.06,29.90,10,10,10,13,3,22,0.00,0,,226
2013-3-16,78,63,48,41,39,37,66,42,26,29.90,29.82,29.72,10,10,10,21,9,33,0.00,1,,233
2013-3-17,71,56,42,50,41,36,81,59,35,30.11,29.95,29.87,10,10,7,14,5,20,0.00,2,,24
2013-3-18,42,40,37,41,38,37,100,95,81,30.14,30.04,29.86,10,6,2,10,6,16,0.26,8,Rain,3
2013-3-19,64,50,37,45,27,7,100,55,15,30.06,29.93,29.84,10,7,0,14,4,21,0.00,3,Fog,293
2013-3-20,55,48,41,19,11,7,42,24,15,30.11,29.97,29.79,10,10,10,12,4,20,0.00,4,,276
2013-3-21,44,37,30,27,9,3,57,33,20,29.97,29.86,29.80,10,10,10,15,6,26,0.00,0,,304
2013-3-22,51,36,21,23,16,10,86,45,21,30.08,30.01,29.96,10,10,10,12,3,17,0.00,2,,261
2013-3-23,55,44,33,39,32,23,93,66,44,30.05,29.97,29.90,10,10,7,7,2,,0.00,4,Rain,235
2013-3-24,42,40,37,41,38,36,100,93,87,29.92,29.71,29.55,10,6,2,14,4,21,0.69,7,Rain,20
2013-3-25,46,40,33,36,26,18,100,65,32,29.88,29.67,29.55,10,9,2,23,5,29,0.02,6,Rain,272
2013-3-26,46,36,26,27,23,19,93,57,37,30.18,30.00,29.88,10,10,10,12,6,17,0.00,4,,289
2013-3-27,51,38,26,25,21,16,93,51,27,30.25,30.21,30.16,10,10,10,13,4,17,0.00,1,,312
2013-3-28,55,39,23,27,20,16,93,50,21,30.30,30.25,30.18,10,10,10,10,3,17,0.00,0,,327
2013-3-29,62,44,26,34,24,19,86,50,19,30.34,30.27,30.18,10,10,10,12,2,20,0.00,2,Rain,273
2013-3-30,62,52,42,45,38,34,100,65,34,30.22,30.15,30.05,10,9,2,9,2,,0.09,4,Rain,275
2013-3-31,69,58,46,54,49,41,100,82,46,30.05,29.91,29.81,10,7,1,21,3,28,0.33,7,Rain,238